createdAt,value
2023-01-09T00:03:50.003Z,90.90
2023-01-09T00:08:51.366Z,90.43
2023-01-09T00:13:52.740Z,90.62
2023-01-09T00:18:54.219Z,90.87
2023-01-09T00:23:55.646Z,90.36
2023-01-09T00:28:57.572Z,90.71
2023-01-09T00:34:06.433Z,90.76
2023-01-09T00:39:07.831Z,90.45
2023-01-09T00:44:31.839Z,90.38
2023-01-09T00:49:36.003Z,90.43
2023-01-09T00:54:38.046Z,91.55
2023-01-09T00:59:40.072Z,91.29
2023-01-09T01:05:00.162Z,91.64
2023-01-09T01:10:01.580Z,92.42
2023-01-09T01:15:03.575Z,92.47
2023-01-09T01:20:05.852Z,92.45
2023-01-09T01:25:08.629Z,92.39
2023-01-09T01:30:11.512Z,91.89
2023-01-09T01:35:13.270Z,92.06
2023-01-09T01:40:14.597Z,92.06
2023-01-09T01:45:19.383Z,91.09
2023-01-09T01:50:30.089Z,91.35
2023-01-09T01:55:33.318Z,91.95
2023-01-09T02:00:37.004Z,91.44
2023-01-09T02:05:39.155Z,92.28
2023-01-09T02:10:40.951Z,91.69
2023-01-09T02:15:46.797Z,92.50
2023-01-09T02:20:48.691Z,93.03
2023-01-09T02:25:56.387Z,93.06
2023-01-09T02:31:01.122Z,93.25
2023-01-09T02:36:10.129Z,93.71
2023-01-09T02:41:16.813Z,93.71
2023-01-09T02:46:19.904Z,95.17
2023-01-09T02:51:21.263Z,94.65
2023-01-09T02:56:31.407Z,94.67
2023-01-09T03:01:52.051Z,94.68
2023-01-09T03:06:54.142Z,94.84
2023-01-09T03:12:04.575Z,94.89
2023-01-09T03:17:07.716Z,94.82
2023-01-09T03:22:09.149Z,94.62
2023-01-09T03:27:10.650Z,94.08
2023-01-09T03:32:12.256Z,93.17
2023-01-09T03:37:13.881Z,92.97
2023-01-09T03:42:15.211Z,92.72
2023-01-09T03:47:16.551Z,92.55
2023-01-09T03:52:17.856Z,92.53
2023-01-09T03:57:19.196Z,92.60
2023-01-09T04:02:20.560Z,92.59
2023-01-09T04:07:21.876Z,92.50
2023-01-09T04:12:23.282Z,92.80
2023-01-09T04:17:24.600Z,92.83
2023-01-09T04:22:25.913Z,91.95
2023-01-09T04:27:27.281Z,92.11
2023-01-09T04:32:28.649Z,92.51
2023-01-09T04:37:30.065Z,91.57
2023-01-09T04:42:31.391Z,92.14
2023-01-09T04:47:32.776Z,91.47
2023-01-09T04:52:34.089Z,91.57
2023-01-09T04:57:35.880Z,91.59
2023-01-09T05:02:37.696Z,91.70
2023-01-09T05:07:39.217Z,91.56
2023-01-09T05:12:40.646Z,92.01
2023-01-09T05:17:42.004Z,92.70
2023-01-09T05:22:43.323Z,91.94
2023-01-09T05:27:46.226Z,92.44
2023-01-09T05:32:47.672Z,92.38
2023-01-09T05:37:49.001Z,91.57
2023-01-09T05:42:50.342Z,90.96
2023-01-09T05:47:51.668Z,90.44
2023-01-09T05:52:52.999Z,90.15
2023-01-09T05:57:54.317Z,91.10
2023-01-09T06:02:55.741Z,91.74
2023-01-09T06:07:57.091Z,92.13
2023-01-09T06:12:58.418Z,91.39
2023-01-09T06:17:59.738Z,91.92
2023-01-09T06:23:01.178Z,92.66
2023-01-09T06:28:02.533Z,92.78
2023-01-09T06:33:03.918Z,92.99
2023-01-09T06:38:05.297Z,92.42
2023-01-09T06:43:06.631Z,93.32
2023-01-09T06:48:07.971Z,93.11
2023-01-09T06:53:10.584Z,92.71
2023-01-09T06:58:12.196Z,93.01
2023-01-09T07:03:19.484Z,93.05
2023-01-09T07:08:20.861Z,93.08
2023-01-09T07:13:22.190Z,92.70
2023-01-09T07:18:23.518Z,92.62
2023-01-09T07:23:24.830Z,92.76
2023-01-09T07:28:26.325Z,92.90
2023-01-09T07:33:27.818Z,92.88
2023-01-09T07:38:29.251Z,92.34
2023-01-09T07:43:30.619Z,92.79
2023-01-09T07:48:32.204Z,92.55
2023-01-09T07:53:33.643Z,92.88
2023-01-09T07:58:34.965Z,93.52
2023-01-09T08:03:36.315Z,93.53
2023-01-09T08:08:37.703Z,94.29
2023-01-09T08:13:39.032Z,94.94
2023-01-09T08:18:40.414Z,95.55
2023-01-09T08:23:41.846Z,95.64
2023-01-09T08:28:43.444Z,95.65
2023-01-09T08:33:44.795Z,96.17
2023-01-09T08:38:46.157Z,95.52
2023-01-09T08:44:05.973Z,96.44
2023-01-09T08:49:07.539Z,96.87
2023-01-09T08:54:08.840Z,95.90
2023-01-09T08:59:11.138Z,96.08
2023-01-09T09:04:12.494Z,96.04
2023-01-09T09:09:13.866Z,96.94
2023-01-09T09:14:34.117Z,97.18
2023-01-09T09:19:35.461Z,96.66
2023-01-09T09:24:36.863Z,95.70
2023-01-09T09:29:38.493Z,95.52
2023-01-09T09:34:39.823Z,95.88
2023-01-09T09:39:41.185Z,97.01
2023-01-09T09:45:00.663Z,96.62
2023-01-09T09:50:17.257Z,97.63
2023-01-09T09:55:21.114Z,97.43
2023-01-09T10:00:23.415Z,97.30
2023-01-09T10:05:45.034Z,97.51
2023-01-09T10:10:51.917Z,97.62
2023-01-09T10:16:01.430Z,97.42
2023-01-09T10:21:02.723Z,97.48
2023-01-09T10:26:07.156Z,97.27
2023-01-09T10:31:19.706Z,95.29
2023-01-09T10:36:32.445Z,94.57
2023-01-09T10:41:40.305Z,94.70
2023-01-09T10:46:45.569Z,94.83
2023-01-09T10:51:51.044Z,96.56
2023-01-09T10:57:02.240Z,96.42
2023-01-09T11:02:03.663Z,97.06
2023-01-09T11:07:21.881Z,96.89
2023-01-09T11:12:27.770Z,97.77
2023-01-09T11:17:29.075Z,97.47
2023-01-09T11:22:41.604Z,97.33
2023-01-09T11:27:43.079Z,97.14
2023-01-09T11:32:45.013Z,97.26
2023-01-09T11:37:47.573Z,95.85
2023-01-09T11:43:06.084Z,96.38
2023-01-09T11:48:17.664Z,96.60
2023-01-09T11:53:20.251Z,97.26
2023-01-09T11:58:22.093Z,96.60
2023-01-09T12:03:42.106Z,95.43
2023-01-09T12:09:03.976Z,95.56
2023-01-09T12:14:11.572Z,96.60
2023-01-09T12:19:22.132Z,96.93
2023-01-09T12:24:41.728Z,96.71
2023-01-09T12:29:52.151Z,97.14
2023-01-09T12:35:03.040Z,96.77
2023-01-09T12:40:04.410Z,95.65
2023-01-09T12:45:28.262Z,95.45
2023-01-09T12:50:32.529Z,95.28
2023-01-09T12:55:36.851Z,95.12
2023-01-09T13:00:41.587Z,95.96
2023-01-09T13:05:45.401Z,96.10
2023-01-09T13:10:52.407Z,96.66
2023-01-09T13:15:55.723Z,96.71
2023-01-09T13:20:57.925Z,97.38
2023-01-09T13:26:04.432Z,96.72
2023-01-09T13:31:16.033Z,97.09
2023-01-09T13:36:24.481Z,96.97
2023-01-09T13:41:45.885Z,94.91
2023-01-09T13:46:48.637Z,94.25
2023-01-09T13:51:58.484Z,95.17
2023-01-09T13:57:18.395Z,96.13
2023-01-09T14:02:35.043Z,96.16
2023-01-09T14:07:37.345Z,96.31
2023-01-09T14:12:40.588Z,95.63
2023-01-09T14:17:42.245Z,95.68
2023-01-09T14:22:55.851Z,95.19
2023-01-09T14:27:57.985Z,95.27
2023-01-09T14:33:23.577Z,95.38
2023-01-09T14:38:34.186Z,94.80
2023-01-09T14:43:52.563Z,94.71
2023-01-09T14:48:53.866Z,93.71
2023-01-09T14:53:56.059Z,94.06
2023-01-09T14:59:04.640Z,93.57
2023-01-09T15:04:13.122Z,93.64
2023-01-09T15:09:24.363Z,94.25
2023-01-09T15:14:33.692Z,94.68
2023-01-09T15:19:35.024Z,94.45
2023-01-09T15:24:36.469Z,94.18
2023-01-09T15:29:37.970Z,93.05
2023-01-09T15:34:39.514Z,92.24
2023-01-09T15:39:40.925Z,91.95
2023-01-09T15:44:44.205Z,92.25
2023-01-09T15:49:46.460Z,92.77
2023-01-09T15:54:49.026Z,93.84
2023-01-09T15:59:50.632Z,93.97
2023-01-09T16:04:53.057Z,93.08
2023-01-09T16:09:54.557Z,92.35
2023-01-09T16:14:57.650Z,92.40
2023-01-09T16:20:12.917Z,91.94
2023-01-09T16:25:36.948Z,91.80
2023-01-09T16:30:39.433Z,91.25
2023-01-09T16:35:40.772Z,91.25
2023-01-09T16:41:19.873Z,91.50
2023-01-09T16:46:21.382Z,90.72
2023-01-09T16:51:25.603Z,90.35
2023-01-09T16:56:29.621Z,90.16
2023-01-09T17:01:31.098Z,90.25
2023-01-09T17:06:32.561Z,90.89
2023-01-09T17:11:33.992Z,90.75
2023-01-09T17:16:36.173Z,90.34
2023-01-09T17:21:38.076Z,90.52
2023-01-09T17:26:59.321Z,90.37
2023-01-09T17:32:00.918Z,90.08
2023-01-09T17:37:04.370Z,90.07
2023-01-09T17:42:06.239Z,90.48
2023-01-09T17:47:13.663Z,90.57
2023-01-09T17:52:15.096Z,90.64
2023-01-09T17:57:17.423Z,90.52
2023-01-09T18:02:19.104Z,90.55
2023-01-09T18:07:20.848Z,91.06
2023-01-09T18:12:22.243Z,91.32
2023-01-09T18:17:23.710Z,91.68
2023-01-09T18:22:25.309Z,92.03
2023-01-09T18:27:27.261Z,92.15
2023-01-09T18:32:28.784Z,92.97
2023-01-09T18:37:30.222Z,92.47
2023-01-09T18:42:31.596Z,92.70
2023-01-09T18:47:33.123Z,93.08
2023-01-09T18:52:34.587Z,92.92
2023-01-09T18:57:36.002Z,92.83
2023-01-09T19:02:37.466Z,92.92
2023-01-09T19:07:38.853Z,93.44
2023-01-09T19:12:40.243Z,93.75
2023-01-09T19:17:41.730Z,93.31
2023-01-09T19:22:43.163Z,92.31
2023-01-09T19:27:46.659Z,92.26
2023-01-09T19:32:48.043Z,92.12
2023-01-09T19:37:49.746Z,92.18
2023-01-09T19:42:55.407Z,92.30
2023-01-09T19:47:57.143Z,92.45
2023-01-09T19:52:58.502Z,91.99
2023-01-09T19:57:59.938Z,92.58
2023-01-09T20:03:01.500Z,93.84
2023-01-09T20:08:06.237Z,93.93
2023-01-09T20:13:07.849Z,94.13
2023-01-09T20:18:10.291Z,94.00
2023-01-09T20:23:16.596Z,93.85
2023-01-09T20:28:18.100Z,94.30
2023-01-09T20:33:20.700Z,94.98
2023-01-09T20:38:23.542Z,94.64
2023-01-09T20:43:29.833Z,94.67
2023-01-09T20:48:31.276Z,94.72
2023-01-09T20:53:32.861Z,94.97
2023-01-09T20:58:34.265Z,94.83
2023-01-09T21:03:35.729Z,94.62
2023-01-09T21:08:37.286Z,94.30
2023-01-09T21:13:39.035Z,94.30
2023-01-09T21:18:40.630Z,94.26
2023-01-09T21:23:49.058Z,93.89
2023-01-09T21:28:54.925Z,94.50
2023-01-09T21:33:56.562Z,94.29
2023-01-09T21:38:58.726Z,93.56
2023-01-09T21:44:18.823Z,93.18
2023-01-09T21:49:20.897Z,92.71
2023-01-09T21:54:25.492Z,92.40
2023-01-09T21:59:27.214Z,92.17
2023-01-09T22:04:29.524Z,92.04
2023-01-09T22:09:30.969Z,92.22
2023-01-09T22:14:32.351Z,92.44
2023-01-09T22:19:33.783Z,92.68
2023-01-09T22:24:35.444Z,92.43
2023-01-09T22:29:36.793Z,92.30
2023-01-09T22:34:39.190Z,92.43
2023-01-09T22:39:40.526Z,92.33
2023-01-09T22:44:41.879Z,92.31
2023-01-09T22:49:52.486Z,92.67
2023-01-09T22:54:55.066Z,92.34
2023-01-09T22:59:56.430Z,92.38
2023-01-09T23:04:58.335Z,92.44
2023-01-09T23:10:01.891Z,92.93
2023-01-09T23:15:03.394Z,93.51
2023-01-09T23:20:05.023Z,93.41
2023-01-09T23:25:06.602Z,93.09
2023-01-09T23:30:09.729Z,92.87
2023-01-09T23:35:11.079Z,92.60
2023-01-09T23:40:12.520Z,92.45
2023-01-09T23:45:13.906Z,92.48
2023-01-09T23:50:15.537Z,92.89
2023-01-09T23:55:16.874Z,93.79
